ADDS TAF Board (Experimental) INFO Settings
IDs: Format: Expanded Condensed

KATL - Atlanta/Hartsfield-J, GA, US

Issued at 2147 UTC 05 Feb 2016
Updated at: 2205 UTC 05 Feb 2016
Time2152Z 05/23Z 06/00Z 06/01Z 06/02Z 06/03Z 06/04Z 06/05Z 06/06Z 06/07Z 06/08Z 06/09Z 06/10Z 06/11Z
Type OBS PRVL PRVL PRVL PRVL PRVL PRVL PRVL PRVL PRVL PRVL PRVL PRVL PRVL
VIS 10 >6 >6 >6 >6 >6 >6 >6 >6 >6 >6 >6 >6 >6
CIG -- -- -- -- -- -- -- -- -- -- -- -- -- --
Cover FEW FEW SKC SKC SKC SKC SKC SKC SKC SKC SKC SKC SKC SKC
FltCat VFR VFR VFR VFR VFR VFR VFR VFR VFR VFR VFR VFR VFR VFR
WX -- -- -- -- -- -- -- -- -- -- -- -- -- --
WDir 320 350 320 320 320 320 320 320 320 320 320 320 40 40
WSpd 9 10 6 6 6 6 6 6 6 6 6 6 5 5
WGst -- -- -- -- -- -- -- -- -- -- -- -- -- --
R08/26
XWnd 7 10 5 5 5 5 5 5 5 5 5 5 4 4
HWnd -6 -2 -4 -4 -4 -4 -4 -4 -4 -4 -4 -4 3 3
R09/27
XWnd 7 10 5 5 5 5 5 5 5 5 5 5 4 4
HWnd -6 -2 -4 -4 -4 -4 -4 -4 -4 -4 -4 -4 3 3
R10/28
XWnd 7 10 5 5 5 5 5 5 5 5 5 5 4 4
HWnd -6 -2 -4 -4 -4 -4 -4 -4 -4 -4 -4 -4 3 3

NOTE: TEMPO conditions in [brackets]. Keep in mind TEMPO conditions might be better (lower impact) than prevailing conditions.

Raw TAF
KATL 052147Z 0522/0624 35010KT P6SM FEW250
  FM060000 32006KT P6SM SKC
  FM061000 04005KT P6SM SKC
  FM061500 07006KT P6SM SCT120
  FM062200 35007KT P6SM BKN070


Raw METAR
KATL 052152Z 32009KT 10SM FEW250 09/M11 A3033 RMK AO2 SLP276 T00941106
KATL 052052Z VRB05KT 10SM FEW250 10/M10 A3032 RMK AO2 SLP272 T01001100 56020
KATL 051952Z 35012KT 330V030 10SM FEW250 10/M11 A3033 RMK AO2 SLP275 T01001106

METAR Board
Radar Display
Forecast Discussion

TAF Board Legend

Potential Impact
Threat None Slight Moderate High
Visibility (sm) ≥5.1 5.1>X≥3 3>X≥1 <1
Ceiling (100 ft) ≥30.1 30.1>X≥10 10>X≥5 <5
Wind Speed (kt) <10 10≤X<20 20≤X<30 ≥30
Wind Gust (kt) <15 15≤X<25 25≤X<35 ≥35
Weather No Wx Reported VCTS,-TS,-FZRA,SN TS,FZRA +TS,+FZRA,+SN